sensor_id;sensor_type;location;lat;lon;timestamp;P1;durP1;ratioP1;P2;durP2;ratioP2
50757;SDS011;36732;47.980;11.652;2024-02-26T00:01:26;3.15;;;1.70;;
50757;SDS011;36732;47.980;11.652;2024-02-26T00:03:52;2.25;;;1.70;;
50757;SDS011;36732;47.980;11.652;2024-02-26T00:06:20;2.53;;;1.77;;
50757;SDS011;36732;47.980;11.652;2024-02-26T00:08:46;2.80;;;2.13;;
50757;SDS011;36732;47.980;11.652;2024-02-26T00:11:11;2.25;;;1.88;;
50757;SDS011;36732;47.980;11.652;2024-02-26T00:13:37;3.65;;;1.90;;
50757;SDS011;36732;47.980;11.652;2024-02-26T00:16:03;2.92;;;1.90;;
50757;SDS011;36732;47.980;11.652;2024-02-26T00:18:29;3.00;;;1.92;;
50757;SDS011;36732;47.980;11.652;2024-02-26T00:20:55;2.60;;;1.67;;
50757;SDS011;36732;47.980;11.652;2024-02-26T00:23:20;2.63;;;1.90;;
50757;SDS011;36732;47.980;11.652;2024-02-26T00:25:48;2.70;;;2.03;;
50757;SDS011;36732;47.980;11.652;2024-02-26T00:28:13;2.55;;;1.98;;
50757;SDS011;36732;47.980;11.652;2024-02-26T00:30:39;2.92;;;1.83;;
50757;SDS011;36732;47.980;11.652;2024-02-26T00:33:05;2.30;;;1.73;;
50757;SDS011;36732;47.980;11.652;2024-02-26T00:35:30;3.22;;;1.83;;
50757;SDS011;36732;47.980;11.652;2024-02-26T00:37:56;1.95;;;1.60;;
50757;SDS011;36732;47.980;11.652;2024-02-26T00:40:23;2.00;;;1.42;;
50757;SDS011;36732;47.980;11.652;2024-02-26T00:42:49;2.47;;;1.90;;
50757;SDS011;36732;47.980;11.652;2024-02-26T00:45:15;3.80;;;1.70;;
50757;SDS011;36732;47.980;11.652;2024-02-26T00:47:41;1.80;;;1.60;;
50757;SDS011;36732;47.980;11.652;2024-02-26T00:50:07;2.55;;;1.70;;
50757;SDS011;36732;47.980;11.652;2024-02-26T00:52:33;1.63;;;1.48;;
50757;SDS011;36732;47.980;11.652;2024-02-26T00:54:59;1.40;;;1.30;;
50757;SDS011;36732;47.980;11.652;2024-02-26T00:57:25;2.55;;;1.35;;
50757;SDS011;36732;47.980;11.652;2024-02-26T00:59:51;1.35;;;1.17;;
50757;SDS011;36732;47.980;11.652;2024-02-26T01:02:16;1.88;;;1.30;;
50757;SDS011;36732;47.980;11.652;2024-02-26T01:04:42;1.80;;;1.45;;
50757;SDS011;36732;47.980;11.652;2024-02-26T01:07:08;2.13;;;1.00;;
50757;SDS011;36732;47.980;11.652;2024-02-26T01:09:34;0.93;;;0.82;;
50757;SDS011;36732;47.980;11.652;2024-02-26T01:12:00;1.48;;;1.23;;
50757;SDS011;36732;47.980;11.652;2024-02-26T01:14:27;1.13;;;0.90;;
50757;SDS011;36732;47.980;11.652;2024-02-26T01:16:53;1.55;;;1.10;;
50757;SDS011;36732;47.980;11.652;2024-02-26T01:19:19;1.73;;;1.00;;
50757;SDS011;36732;47.980;11.652;2024-02-26T01:21:45;1.05;;;0.90;;
50757;SDS011;36732;47.980;11.652;2024-02-26T01:24:10;1.50;;;1.08;;
50757;SDS011;36732;47.980;11.652;2024-02-26T01:26:36;1.90;;;1.40;;
50757;SDS011;36732;47.980;11.652;2024-02-26T01:29:01;1.27;;;1.15;;
50757;SDS011;36732;47.980;11.652;2024-02-26T01:31:27;1.35;;;1.10;;
50757;SDS011;36732;47.980;11.652;2024-02-26T01:33:53;1.30;;;1.00;;
50757;SDS011;36732;47.980;11.652;2024-02-26T01:36:19;1.52;;;1.10;;
50757;SDS011;36732;47.980;11.652;2024-02-26T01:38:45;1.10;;;0.82;;
50757;SDS011;36732;47.980;11.652;2024-02-26T01:41:10;1.52;;;1.00;;
50757;SDS011;36732;47.980;11.652;2024-02-26T01:43:36;1.85;;;1.27;;
50757;SDS011;36732;47.980;11.652;2024-02-26T01:46:02;1.98;;;1.15;;
50757;SDS011;36732;47.980;11.652;2024-02-26T01:48:28;1.48;;;1.10;;
50757;SDS011;36732;47.980;11.652;2024-02-26T01:50:54;1.63;;;1.23;;
50757;SDS011;36732;47.980;11.652;2024-02-26T01:53:20;1.85;;;1.20;;
50757;SDS011;36732;47.980;11.652;2024-02-26T01:55:46;1.30;;;0.93;;
50757;SDS011;36732;47.980;11.652;2024-02-26T01:58:12;1.80;;;1.40;;
50757;SDS011;36732;47.980;11.652;2024-02-26T02:00:38;1.80;;;1.20;;
50757;SDS011;36732;47.980;11.652;2024-02-26T02:03:04;1.40;;;1.00;;
50757;SDS011;36732;47.980;11.652;2024-02-26T02:05:30;1.35;;;1.10;;
50757;SDS011;36732;47.980;11.652;2024-02-26T02:07:57;1.10;;;1.00;;
50757;SDS011;36732;47.980;11.652;2024-02-26T02:10:24;2.08;;;1.10;;
50757;SDS011;36732;47.980;11.652;2024-02-26T02:12:51;1.30;;;1.20;;
50757;SDS011;36732;47.980;11.652;2024-02-26T02:15:17;1.38;;;1.15;;
50757;SDS011;36732;47.980;11.652;2024-02-26T02:17:43;1.33;;;1.15;;
50757;SDS011;36732;47.980;11.652;2024-02-26T02:20:18;2.08;;;1.40;;
50757;SDS011;36732;47.980;11.652;2024-02-26T02:22:44;1.40;;;1.30;;
50757;SDS011;36732;47.980;11.652;2024-02-26T02:25:10;1.55;;;0.80;;
50757;SDS011;36732;47.980;11.652;2024-02-26T02:27:36;1.50;;;1.17;;
50757;SDS011;36732;47.980;11.652;2024-02-26T02:30:02;1.58;;;1.08;;
50757;SDS011;36732;47.980;11.652;2024-02-26T02:32:29;1.10;;;1.00;;
50757;SDS011;36732;47.980;11.652;2024-02-26T02:34:55;0.93;;;0.75;;
50757;SDS011;36732;47.980;11.652;2024-02-26T02:37:21;1.10;;;0.88;;
50757;SDS011;36732;47.980;11.652;2024-02-26T02:39:47;1.25;;;1.08;;
50757;SDS011;36732;47.980;11.652;2024-02-26T02:42:13;1.50;;;0.85;;
50757;SDS011;36732;47.980;11.652;2024-02-26T02:44:38;1.40;;;1.00;;
50757;SDS011;36732;47.980;11.652;2024-02-26T02:47:04;1.10;;;0.98;;
50757;SDS011;36732;47.980;11.652;2024-02-26T02:49:30;1.08;;;0.98;;
50757;SDS011;36732;47.980;11.652;2024-02-26T02:51:56;1.38;;;1.17;;
50757;SDS011;36732;47.980;11.652;2024-02-26T02:54:22;1.13;;;1.00;;
50757;SDS011;36732;47.980;11.652;2024-02-26T02:56:48;1.00;;;0.90;;
50757;SDS011;36732;47.980;11.652;2024-02-26T02:59:14;2.10;;;1.20;;
50757;SDS011;36732;47.980;11.652;2024-02-26T03:01:39;2.20;;;0.88;;
50757;SDS011;36732;47.980;11.652;2024-02-26T03:04:05;0.90;;;0.80;;
50757;SDS011;36732;47.980;11.652;2024-02-26T03:06:31;1.70;;;1.08;;
50757;SDS011;36732;47.980;11.652;2024-02-26T03:08:57;1.05;;;0.85;;
50757;SDS011;36732;47.980;11.652;2024-02-26T03:11:22;0.60;;;0.60;;
50757;SDS011;36732;47.980;11.652;2024-02-26T03:13:48;0.77;;;0.73;;
50757;SDS011;36732;47.980;11.652;2024-02-26T03:16:14;1.15;;;1.05;;
50757;SDS011;36732;47.980;11.652;2024-02-26T03:18:39;2.22;;;1.20;;
50757;SDS011;36732;47.980;11.652;2024-02-26T03:21:05;1.27;;;0.85;;
50757;SDS011;36732;47.980;11.652;2024-02-26T03:23:32;1.00;;;0.80;;
50757;SDS011;36732;47.980;11.652;2024-02-26T03:26:01;1.00;;;0.80;;
50757;SDS011;36732;47.980;11.652;2024-02-26T03:28:29;1.25;;;0.80;;
50757;SDS011;36732;47.980;11.652;2024-02-26T03:30:55;1.05;;;0.80;;
50757;SDS011;36732;47.980;11.652;2024-02-26T03:33:21;1.40;;;0.82;;
50757;SDS011;36732;47.980;11.652;2024-02-26T03:35:47;0.80;;;0.73;;
50757;SDS011;36732;47.980;11.652;2024-02-26T03:38:13;0.80;;;0.68;;
50757;SDS011;36732;47.980;11.652;2024-02-26T03:40:38;0.68;;;0.68;;
50757;SDS011;36732;47.980;11.652;2024-02-26T03:43:04;0.75;;;0.75;;
50757;SDS011;36732;47.980;11.652;2024-02-26T03:45:32;1.13;;;0.75;;
50757;SDS011;36732;47.980;11.652;2024-02-26T03:47:58;1.40;;;0.80;;
50757;SDS011;36732;47.980;11.652;2024-02-26T03:50:23;0.98;;;0.75;;
50757;SDS011;36732;47.980;11.652;2024-02-26T03:52:49;1.48;;;0.70;;
50757;SDS011;36732;47.980;11.652;2024-02-26T03:55:15;0.73;;;0.55;;
50757;SDS011;36732;47.980;11.652;2024-02-26T03:57:43;1.25;;;0.90;;
50757;SDS011;36732;47.980;11.652;2024-02-26T04:00:09;0.98;;;0.93;;
50757;SDS011;36732;47.980;11.652;2024-02-26T04:02:35;0.73;;;0.60;;
50757;SDS011;36732;47.980;11.652;2024-02-26T04:05:01;1.60;;;0.90;;
50757;SDS011;36732;47.980;11.652;2024-02-26T04:07:27;3.38;;;2.58;;
50757;SDS011;36732;47.980;11.652;2024-02-26T04:09:52;2.30;;;1.70;;
50757;SDS011;36732;47.980;11.652;2024-02-26T04:12:18;0.88;;;0.88;;
50757;SDS011;36732;47.980;11.652;2024-02-26T04:14:44;1.60;;;0.90;;
50757;SDS011;36732;47.980;11.652;2024-02-26T04:17:09;1.77;;;1.00;;
50757;SDS011;36732;47.980;11.652;2024-02-26T04:19:36;1.13;;;0.80;;
50757;SDS011;36732;47.980;11.652;2024-02-26T04:22:01;0.90;;;0.82;;
50757;SDS011;36732;47.980;11.652;2024-02-26T04:24:27;1.13;;;0.90;;
50757;SDS011;36732;47.980;11.652;2024-02-26T04:26:53;1.00;;;0.90;;
50757;SDS011;36732;47.980;11.652;2024-02-26T04:29:19;0.98;;;0.85;;
50757;SDS011;36732;47.980;11.652;2024-02-26T04:31:44;0.60;;;0.60;;
50757;SDS011;36732;47.980;11.652;2024-02-26T04:34:11;0.85;;;0.70;;
50757;SDS011;36732;47.980;11.652;2024-02-26T04:36:37;0.60;;;0.60;;
50757;SDS011;36732;47.980;11.652;2024-02-26T04:39:03;1.05;;;0.80;;
50757;SDS011;36732;47.980;11.652;2024-02-26T04:41:28;1.60;;;0.88;;
50757;SDS011;36732;47.980;11.652;2024-02-26T04:43:54;1.42;;;0.63;;
50757;SDS011;36732;47.980;11.652;2024-02-26T04:46:20;1.60;;;0.80;;
50757;SDS011;36732;47.980;11.652;2024-02-26T04:48:46;1.35;;;1.05;;
50757;SDS011;36732;47.980;11.652;2024-02-26T04:51:12;3.22;;;0.60;;
50757;SDS011;36732;47.980;11.652;2024-02-26T04:53:38;1.17;;;0.90;;
50757;SDS011;36732;47.980;11.652;2024-02-26T04:56:04;3.67;;;0.88;;
50757;SDS011;36732;47.980;11.652;2024-02-26T04:58:30;3.55;;;0.82;;
50757;SDS011;36732;47.980;11.652;2024-02-26T05:00:56;0.85;;;0.55;;
50757;SDS011;36732;47.980;11.652;2024-02-26T05:03:21;3.28;;;0.70;;
50757;SDS011;36732;47.980;11.652;2024-02-26T05:05:47;1.75;;;0.93;;
50757;SDS011;36732;47.980;11.652;2024-02-26T05:08:13;1.23;;;0.82;;
50757;SDS011;36732;47.980;11.652;2024-02-26T05:10:39;1.27;;;0.60;;
50757;SDS011;36732;47.980;11.652;2024-02-26T05:13:06;1.92;;;0.38;;
50757;SDS011;36732;47.980;11.652;2024-02-26T05:15:32;0.88;;;0.60;;
50757;SDS011;36732;47.980;11.652;2024-02-26T05:17:58;1.77;;;0.70;;
50757;SDS011;36732;47.980;11.652;2024-02-26T05:20:24;0.60;;;0.40;;
50757;SDS011;36732;47.980;11.652;2024-02-26T05:22:50;0.68;;;0.50;;
50757;SDS011;36732;47.980;11.652;2024-02-26T05:25:15;0.65;;;0.50;;
50757;SDS011;36732;47.980;11.652;2024-02-26T05:27:42;1.08;;;0.45;;
50757;SDS011;36732;47.980;11.652;2024-02-26T05:30:09;0.45;;;0.40;;
50757;SDS011;36732;47.980;11.652;2024-02-26T05:32:35;1.17;;;0.63;;
50757;SDS011;36732;47.980;11.652;2024-02-26T05:35:01;0.93;;;0.60;;
50757;SDS011;36732;47.980;11.652;2024-02-26T05:37:30;1.02;;;0.70;;
50757;SDS011;36732;47.980;11.652;2024-02-26T05:39:56;1.85;;;0.80;;
50757;SDS011;36732;47.980;11.652;2024-02-26T05:42:21;1.30;;;0.70;;
50757;SDS011;36732;47.980;11.652;2024-02-26T05:44:47;1.10;;;0.70;;
50757;SDS011;36732;47.980;11.652;2024-02-26T05:47:13;1.05;;;0.63;;
50757;SDS011;36732;47.980;11.652;2024-02-26T05:49:39;0.75;;;0.45;;
50757;SDS011;36732;47.980;11.652;2024-02-26T05:52:05;0.98;;;0.70;;
50757;SDS011;36732;47.980;11.652;2024-02-26T05:54:31;2.22;;;0.60;;
50757;SDS011;36732;47.980;11.652;2024-02-26T05:56:57;1.40;;;0.52;;
50757;SDS011;36732;47.980;11.652;2024-02-26T05:59:23;1.10;;;0.68;;
50757;SDS011;36732;47.980;11.652;2024-02-26T06:01:48;1.38;;;0.50;;
50757;SDS011;36732;47.980;11.652;2024-02-26T06:04:14;1.00;;;0.60;;
50757;SDS011;36732;47.980;11.652;2024-02-26T06:06:40;1.27;;;0.90;;
50757;SDS011;36732;47.980;11.652;2024-02-26T06:09:06;1.10;;;0.60;;
50757;SDS011;36732;47.980;11.652;2024-02-26T06:11:31;12.95;;;1.17;;
50757;SDS011;36732;47.980;11.652;2024-02-26T06:13:57;3.20;;;0.88;;
50757;SDS011;36732;47.980;11.652;2024-02-26T06:16:23;3.60;;;1.23;;
50757;SDS011;36732;47.980;11.652;2024-02-26T06:18:49;2.58;;;1.40;;
50757;SDS011;36732;47.980;11.652;2024-02-26T06:21:14;5.00;;;2.40;;
50757;SDS011;36732;47.980;11.652;2024-02-26T06:23:40;3.25;;;1.85;;
50757;SDS011;36732;47.980;11.652;2024-02-26T06:26:06;4.55;;;1.92;;
50757;SDS011;36732;47.980;11.652;2024-02-26T06:28:31;5.75;;;2.15;;
50757;SDS011;36732;47.980;11.652;2024-02-26T06:30:58;4.85;;;1.83;;
50757;SDS011;36732;47.980;11.652;2024-02-26T06:33:24;3.22;;;1.40;;
50757;SDS011;36732;47.980;11.652;2024-02-26T06:35:50;3.25;;;1.60;;
50757;SDS011;36732;47.980;11.652;2024-02-26T06:38:16;3.67;;;1.23;;
50757;SDS011;36732;47.980;11.652;2024-02-26T06:40:42;3.65;;;1.10;;
50757;SDS011;36732;47.980;11.652;2024-02-26T06:43:09;2.80;;;1.58;;
50757;SDS011;36732;47.980;11.652;2024-02-26T06:45:35;0.93;;;0.75;;
50757;SDS011;36732;47.980;11.652;2024-02-26T06:48:00;1.17;;;0.63;;
50757;SDS011;36732;47.980;11.652;2024-02-26T06:50:27;1.83;;;1.00;;
50757;SDS011;36732;47.980;11.652;2024-02-26T06:52:53;4.03;;;2.10;;
50757;SDS011;36732;47.980;11.652;2024-02-26T06:55:18;4.40;;;2.13;;
50757;SDS011;36732;47.980;11.652;2024-02-26T06:57:44;3.00;;;1.65;;
50757;SDS011;36732;47.980;11.652;2024-02-26T07:00:10;2.55;;;1.20;;
50757;SDS011;36732;47.980;11.652;2024-02-26T07:02:41;2.70;;;1.40;;
50757;SDS011;36732;47.980;11.652;2024-02-26T07:05:09;6.57;;;1.33;;
50757;SDS011;36732;47.980;11.652;2024-02-26T07:07:35;8.48;;;1.45;;
50757;SDS011;36732;47.980;11.652;2024-02-26T07:10:01;2.17;;;0.95;;
50757;SDS011;36732;47.980;11.652;2024-02-26T07:12:29;2.42;;;1.25;;
50757;SDS011;36732;47.980;11.652;2024-02-26T07:14:55;2.78;;;1.10;;
50757;SDS011;36732;47.980;11.652;2024-02-26T07:17:21;5.97;;;1.23;;
50757;SDS011;36732;47.980;11.652;2024-02-26T07:19:46;1.60;;;0.93;;
50757;SDS011;36732;47.980;11.652;2024-02-26T07:22:12;7.70;;;1.25;;
50757;SDS011;36732;47.980;11.652;2024-02-26T07:24:38;4.15;;;1.23;;
50757;SDS011;36732;47.980;11.652;2024-02-26T07:27:04;1.67;;;1.02;;
50757;SDS011;36732;47.980;11.652;2024-02-26T07:29:30;1.25;;;1.00;;
50757;SDS011;36732;47.980;11.652;2024-02-26T07:31:55;1.52;;;1.00;;
50757;SDS011;36732;47.980;11.652;2024-02-26T07:34:21;7.25;;;0.80;;
50757;SDS011;36732;47.980;11.652;2024-02-26T07:36:52;1.75;;;0.70;;
50757;SDS011;36732;47.980;11.652;2024-02-26T07:39:18;1.10;;;0.70;;
50757;SDS011;36732;47.980;11.652;2024-02-26T07:41:44;4.93;;;0.85;;
50757;SDS011;36732;47.980;11.652;2024-02-26T07:44:13;0.75;;;0.50;;
50757;SDS011;36732;47.980;11.652;2024-02-26T07:46:39;1.35;;;1.02;;
50757;SDS011;36732;47.980;11.652;2024-02-26T07:49:04;4.97;;;1.00;;
50757;SDS011;36732;47.980;11.652;2024-02-26T07:51:30;1.35;;;0.80;;
50757;SDS011;36732;47.980;11.652;2024-02-26T07:53:55;1.25;;;0.98;;
50757;SDS011;36732;47.980;11.652;2024-02-26T07:56:21;3.22;;;0.90;;
50757;SDS011;36732;47.980;11.652;2024-02-26T07:58:47;2.55;;;0.80;;
50757;SDS011;36732;47.980;11.652;2024-02-26T08:01:13;1.98;;;0.80;;
50757;SDS011;36732;47.980;11.652;2024-02-26T08:03:39;1.75;;;0.93;;
50757;SDS011;36732;47.980;11.652;2024-02-26T08:06:05;2.45;;;0.85;;
50757;SDS011;36732;47.980;11.652;2024-02-26T08:08:32;1.33;;;0.80;;
50757;SDS011;36732;47.980;11.652;2024-02-26T08:10:58;1.40;;;1.05;;
50757;SDS011;36732;47.980;11.652;2024-02-26T08:13:24;1.83;;;1.10;;
50757;SDS011;36732;47.980;11.652;2024-02-26T08:15:51;2.03;;;0.73;;
50757;SDS011;36732;47.980;11.652;2024-02-26T08:18:17;1.00;;;0.90;;
50757;SDS011;36732;47.980;11.652;2024-02-26T08:20:43;2.03;;;1.10;;
50757;SDS011;36732;47.980;11.652;2024-02-26T08:23:08;1.60;;;1.23;;
50757;SDS011;36732;47.980;11.652;2024-02-26T08:25:34;0.63;;;0.57;;
50757;SDS011;36732;47.980;11.652;2024-02-26T08:28:00;0.75;;;0.50;;
50757;SDS011;36732;47.980;11.652;2024-02-26T08:30:25;2.15;;;0.40;;
50757;SDS011;36732;47.980;11.652;2024-02-26T08:32:51;0.88;;;0.60;;
50757;SDS011;36732;47.980;11.652;2024-02-26T08:35:17;3.60;;;0.70;;
50757;SDS011;36732;47.980;11.652;2024-02-26T08:37:44;0.65;;;0.40;;
50757;SDS011;36732;47.980;11.652;2024-02-26T08:40:11;0.88;;;0.60;;
50757;SDS011;36732;47.980;11.652;2024-02-26T08:42:37;0.50;;;0.50;;
50757;SDS011;36732;47.980;11.652;2024-02-26T08:45:02;1.05;;;0.68;;
50757;SDS011;36732;47.980;11.652;2024-02-26T08:47:28;1.45;;;0.70;;
50757;SDS011;36732;47.980;11.652;2024-02-26T08:49:54;1.08;;;0.55;;
50757;SDS011;36732;47.980;11.652;2024-02-26T08:52:20;1.00;;;0.50;;
50757;SDS011;36732;47.980;11.652;2024-02-26T08:54:46;0.70;;;0.40;;
50757;SDS011;36732;47.980;11.652;2024-02-26T08:57:12;1.20;;;0.40;;
50757;SDS011;36732;47.980;11.652;2024-02-26T08:59:38;0.40;;;0.40;;
50757;SDS011;36732;47.980;11.652;2024-02-26T09:02:05;1.15;;;0.40;;
50757;SDS011;36732;47.980;11.652;2024-02-26T09:04:31;0.82;;;0.40;;
50757;SDS011;36732;47.980;11.652;2024-02-26T09:06:56;2.53;;;0.50;;
50757;SDS011;36732;47.980;11.652;2024-02-26T09:09:22;1.63;;;0.60;;
50757;SDS011;36732;47.980;11.652;2024-02-26T09:11:50;0.93;;;0.45;;
50757;SDS011;36732;47.980;11.652;2024-02-26T09:14:17;0.43;;;0.40;;
50757;SDS011;36732;47.980;11.652;2024-02-26T09:16:43;0.73;;;0.45;;
50757;SDS011;36732;47.980;11.652;2024-02-26T09:19:09;1.20;;;0.47;;
50757;SDS011;36732;47.980;11.652;2024-02-26T09:21:34;1.08;;;0.57;;
50757;SDS011;36732;47.980;11.652;2024-02-26T09:24:00;1.40;;;0.65;;
50757;SDS011;36732;47.980;11.652;2024-02-26T09:26:26;1.08;;;0.50;;
50757;SDS011;36732;47.980;11.652;2024-02-26T09:28:51;0.38;;;0.38;;
50757;SDS011;36732;47.980;11.652;2024-02-26T09:31:17;0.47;;;0.47;;
50757;SDS011;36732;47.980;11.652;2024-02-26T09:33:43;0.70;;;0.40;;
50757;SDS011;36732;47.980;11.652;2024-02-26T09:36:09;0.43;;;0.40;;
50757;SDS011;36732;47.980;11.652;2024-02-26T09:38:36;0.90;;;0.40;;
50757;SDS011;36732;47.980;11.652;2024-02-26T09:41:03;0.65;;;0.45;;
50757;SDS011;36732;47.980;11.652;2024-02-26T09:43:34;0.50;;;0.40;;
50757;SDS011;36732;47.980;11.652;2024-02-26T09:46:04;1.13;;;0.50;;
50757;SDS011;36732;47.980;11.652;2024-02-26T09:48:31;0.50;;;0.50;;
50757;SDS011;36732;47.980;11.652;2024-02-26T09:50:59;0.40;;;0.40;;
50757;SDS011;36732;47.980;11.652;2024-02-26T09:53:27;0.45;;;0.40;;
50757;SDS011;36732;47.980;11.652;2024-02-26T09:55:54;0.43;;;0.30;;
50757;SDS011;36732;47.980;11.652;2024-02-26T09:58:20;1.00;;;0.50;;
50757;SDS011;36732;47.980;11.652;2024-02-26T10:00:51;0.77;;;0.40;;
50757;SDS011;36732;47.980;11.652;2024-02-26T10:03:23;0.85;;;0.70;;
50757;SDS011;36732;47.980;11.652;2024-02-26T10:05:55;0.60;;;0.40;;
50757;SDS011;36732;47.980;11.652;2024-02-26T10:08:22;0.40;;;0.40;;
50757;SDS011;36732;47.980;11.652;2024-02-26T10:10:48;2.97;;;0.75;;
50757;SDS011;36732;47.980;11.652;2024-02-26T10:13:15;1.00;;;0.60;;
50757;SDS011;36732;47.980;11.652;2024-02-26T10:15:41;1.88;;;1.08;;
50757;SDS011;36732;47.980;11.652;2024-02-26T10:18:06;1.52;;;1.00;;
50757;SDS011;36732;47.980;11.652;2024-02-26T10:20:32;2.92;;;0.60;;
50757;SDS011;36732;47.980;11.652;2024-02-26T10:22:58;0.98;;;0.73;;
50757;SDS011;36732;47.980;11.652;2024-02-26T10:25:28;0.90;;;0.63;;
50757;SDS011;36732;47.980;11.652;2024-02-26T10:27:56;0.90;;;0.63;;
50757;SDS011;36732;47.980;11.652;2024-02-26T10:30:28;1.40;;;0.70;;
50757;SDS011;36732;47.980;11.652;2024-02-26T10:32:55;1.75;;;0.90;;
50757;SDS011;36732;47.980;11.652;2024-02-26T10:35:21;1.85;;;0.65;;
50757;SDS011;36732;47.980;11.652;2024-02-26T10:37:47;1.13;;;0.65;;
50757;SDS011;36732;47.980;11.652;2024-02-26T10:40:14;0.73;;;0.70;;
50757;SDS011;36732;47.980;11.652;2024-02-26T10:42:41;2.72;;;0.93;;
50757;SDS011;36732;47.980;11.652;2024-02-26T10:45:08;1.23;;;0.73;;
50757;SDS011;36732;47.980;11.652;2024-02-26T10:47:35;1.10;;;0.80;;
50757;SDS011;36732;47.980;11.652;2024-02-26T10:50:02;1.30;;;0.77;;
50757;SDS011;36732;47.980;11.652;2024-02-26T10:52:34;0.70;;;0.60;;
50757;SDS011;36732;47.980;11.652;2024-02-26T10:55:02;0.50;;;0.50;;
50757;SDS011;36732;47.980;11.652;2024-02-26T10:57:39;1.17;;;0.50;;
50757;SDS011;36732;47.980;11.652;2024-02-26T11:00:07;0.63;;;0.60;;
50757;SDS011;36732;47.980;11.652;2024-02-26T11:02:35;0.55;;;0.50;;
50757;SDS011;36732;47.980;11.652;2024-02-26T11:05:02;0.73;;;0.65;;
50757;SDS011;36732;47.980;11.652;2024-02-26T11:07:29;2.97;;;0.70;;
50757;SDS011;36732;47.980;11.652;2024-02-26T11:09:57;0.50;;;0.50;;
50757;SDS011;36732;47.980;11.652;2024-02-26T11:12:24;1.15;;;0.63;;
50757;SDS011;36732;47.980;11.652;2024-02-26T11:14:53;1.00;;;0.70;;
50757;SDS011;36732;47.980;11.652;2024-02-26T11:17:23;1.00;;;0.50;;
50757;SDS011;36732;47.980;11.652;2024-02-26T11:19:57;0.98;;;0.80;;
50757;SDS011;36732;47.980;11.652;2024-02-26T11:22:24;0.75;;;0.70;;
50757;SDS011;36732;47.980;11.652;2024-02-26T11:24:54;2.17;;;0.70;;
50757;SDS011;36732;47.980;11.652;2024-02-26T11:27:30;1.83;;;0.60;;
50757;SDS011;36732;47.980;11.652;2024-02-26T11:30:00;1.85;;;0.88;;
50757;SDS011;36732;47.980;11.652;2024-02-26T11:32:30;2.00;;;0.80;;
50757;SDS011;36732;47.980;11.652;2024-02-26T11:34:56;0.80;;;0.80;;
50757;SDS011;36732;47.980;11.652;2024-02-26T11:37:23;1.80;;;0.68;;
50757;SDS011;36732;47.980;11.652;2024-02-26T11:39:51;0.77;;;0.60;;
50757;SDS011;36732;47.980;11.652;2024-02-26T11:42:17;0.88;;;0.70;;
50757;SDS011;36732;47.980;11.652;2024-02-26T11:44:50;0.50;;;0.50;;
50757;SDS011;36732;47.980;11.652;2024-02-26T11:47:19;0.77;;;0.70;;
50757;SDS011;36732;47.980;11.652;2024-02-26T11:49:47;1.10;;;0.75;;
50757;SDS011;36732;47.980;11.652;2024-02-26T11:52:14;0.90;;;0.80;;
50757;SDS011;36732;47.980;11.652;2024-02-26T11:54:44;1.40;;;0.82;;
50757;SDS011;36732;47.980;11.652;2024-02-26T11:57:23;0.63;;;0.63;;
50757;SDS011;36732;47.980;11.652;2024-02-26T12:00:14;0.70;;;0.70;;
50757;SDS011;36732;47.980;11.652;2024-02-26T12:02:49;2.78;;;1.10;;
50757;SDS011;36732;47.980;11.652;2024-02-26T12:05:27;1.70;;;0.93;;
50757;SDS011;36732;47.980;11.652;2024-02-26T12:08:04;0.68;;;0.65;;
50757;SDS011;36732;47.980;11.652;2024-02-26T12:10:33;2.80;;;0.80;;
50757;SDS011;36732;47.980;11.652;2024-02-26T12:13:13;1.75;;;0.75;;
50757;SDS011;36732;47.980;11.652;2024-02-26T12:15:56;1.08;;;0.70;;
50757;SDS011;36732;47.980;11.652;2024-02-26T12:18:23;1.00;;;0.70;;
50757;SDS011;36732;47.980;11.652;2024-02-26T12:21:02;0.90;;;0.50;;
50757;SDS011;36732;47.980;11.652;2024-02-26T12:23:29;3.05;;;0.82;;
50757;SDS011;36732;47.980;11.652;2024-02-26T12:26:00;0.47;;;0.47;;
50757;SDS011;36732;47.980;11.652;2024-02-26T12:28:30;0.73;;;0.63;;
50757;SDS011;36732;47.980;11.652;2024-02-26T12:30:56;1.08;;;0.60;;
50757;SDS011;36732;47.980;11.652;2024-02-26T12:33:24;0.75;;;0.50;;
50757;SDS011;36732;47.980;11.652;2024-02-26T12:35:51;0.47;;;0.47;;
50757;SDS011;36732;47.980;11.652;2024-02-26T12:38:18;1.20;;;0.50;;
50757;SDS011;36732;47.980;11.652;2024-02-26T12:40:44;0.47;;;0.45;;
50757;SDS011;36732;47.980;11.652;2024-02-26T12:43:10;0.60;;;0.40;;
50757;SDS011;36732;47.980;11.652;2024-02-26T12:45:40;0.35;;;0.35;;
50757;SDS011;36732;47.980;11.652;2024-02-26T12:48:06;0.40;;;0.40;;
50757;SDS011;36732;47.980;11.652;2024-02-26T12:50:32;0.77;;;0.47;;
50757;SDS011;36732;47.980;11.652;2024-02-26T12:52:58;1.52;;;0.60;;
50757;SDS011;36732;47.980;11.652;2024-02-26T12:55:24;0.68;;;0.57;;
50757;SDS011;36732;47.980;11.652;2024-02-26T12:57:51;0.25;;;0.25;;
50757;SDS011;36732;47.980;11.652;2024-02-26T13:00:18;1.00;;;0.45;;
50757;SDS011;36732;47.980;11.652;2024-02-26T13:02:49;0.52;;;0.52;;
50757;SDS011;36732;47.980;11.652;2024-02-26T13:05:16;0.88;;;0.57;;
50757;SDS011;36732;47.980;11.652;2024-02-26T13:07:44;0.80;;;0.47;;
50757;SDS011;36732;47.980;11.652;2024-02-26T13:10:15;0.57;;;0.50;;
50757;SDS011;36732;47.980;11.652;2024-02-26T13:12:43;0.75;;;0.65;;
50757;SDS011;36732;47.980;11.652;2024-02-26T13:15:13;0.45;;;0.45;;
50757;SDS011;36732;47.980;11.652;2024-02-26T13:17:41;0.32;;;0.30;;
50757;SDS011;36732;47.980;11.652;2024-02-26T13:20:08;0.40;;;0.40;;
50757;SDS011;36732;47.980;11.652;2024-02-26T13:22:37;0.30;;;0.30;;
50757;SDS011;36732;47.980;11.652;2024-02-26T13:25:03;0.30;;;0.30;;
50757;SDS011;36732;47.980;11.652;2024-02-26T13:27:32;0.25;;;0.25;;
50757;SDS011;36732;47.980;11.652;2024-02-26T13:30:02;0.60;;;0.40;;
50757;SDS011;36732;47.980;11.652;2024-02-26T13:32:36;0.20;;;0.20;;
50757;SDS011;36732;47.980;11.652;2024-02-26T13:35:12;0.30;;;0.30;;
50757;SDS011;36732;47.980;11.652;2024-02-26T13:37:38;0.28;;;0.28;;
50757;SDS011;36732;47.980;11.652;2024-02-26T13:40:06;1.35;;;0.40;;
50757;SDS011;36732;47.980;11.652;2024-02-26T13:42:34;0.52;;;0.30;;
50757;SDS011;36732;47.980;11.652;2024-02-26T13:45:00;0.40;;;0.40;;
50757;SDS011;36732;47.980;11.652;2024-02-26T13:47:26;1.10;;;0.40;;
50757;SDS011;36732;47.980;11.652;2024-02-26T13:49:52;0.57;;;0.30;;
50757;SDS011;36732;47.980;11.652;2024-02-26T13:52:18;0.40;;;0.30;;
50757;SDS011;36732;47.980;11.652;2024-02-26T13:54:45;0.40;;;0.40;;
50757;SDS011;36732;47.980;11.652;2024-02-26T13:57:11;0.75;;;0.57;;
50757;SDS011;36732;47.980;11.652;2024-02-26T13:59:37;0.63;;;0.55;;
50757;SDS011;36732;47.980;11.652;2024-02-26T14:02:06;0.43;;;0.43;;
50757;SDS011;36732;47.980;11.652;2024-02-26T14:04:32;0.47;;;0.32;;
50757;SDS011;36732;47.980;11.652;2024-02-26T14:06:58;0.30;;;0.30;;
50757;SDS011;36732;47.980;11.652;2024-02-26T14:09:23;2.17;;;0.47;;
50757;SDS011;36732;47.980;11.652;2024-02-26T14:11:49;0.88;;;0.47;;
50757;SDS011;36732;47.980;11.652;2024-02-26T14:14:15;0.35;;;0.35;;
50757;SDS011;36732;47.980;11.652;2024-02-26T14:16:41;0.40;;;0.40;;
50757;SDS011;36732;47.980;11.652;2024-02-26T14:19:06;0.80;;;0.50;;
50757;SDS011;36732;47.980;11.652;2024-02-26T14:21:32;0.65;;;0.50;;
50757;SDS011;36732;47.980;11.652;2024-02-26T14:23:58;0.90;;;0.65;;
50757;SDS011;36732;47.980;11.652;2024-02-26T14:26:23;1.42;;;0.47;;
50757;SDS011;36732;47.980;11.652;2024-02-26T14:28:49;1.17;;;0.30;;
50757;SDS011;36732;47.980;11.652;2024-02-26T14:31:18;2.50;;;0.60;;